Terminal Aerodrome Forecast
Issued by NWS

Home | Current Version | Previous Version | Text Only | Print | Product List | Glossary On
Versions: 1 2 3 4 5 6 7 8 9 10 11 12 13 14 15 16 17 18 19
000
FTUS43 KGRR 292300 RRA
TAFLAN
TAF
KLAN 292344Z 3000/3024 31014G22KT P6SM OVC025
      TEMPO 3000/3004 -FZDZSN OVC015
     FM301000 33011KT P6SM SCT035
     FM301800 30008KT P6SM BKN035=

USA.gov is the U.S. government's official web portal to all federal, state and local government web resources and services.